Ayrshire, Iowa
Current Conditions -  °F | °C
As of 12:53 AM on Thursday 23 Oct 2014 (Local Time) from KSPW Reporting Station
Light Rain Light Rain  
Wind Chill: 58°   Ceiling: 600
Heat Index: 58°   Visibility: 7mi
Dew Point: 56°   Wind: 7mph
Humidity: 93%   Direction: 190°S
Pressure: 30.02"   Gusts: NA
Location:  43.04°N, 94.83°W
Report Text: KSPW 230553Z AUTO 19006KT 7SM -RA BKN006 OVC015 14/13 A3002 RMK AO2 RAB26 SLP163 P0001 60026 T01440133 10178 20144 402110083 58009 TSNO
Loading
Personal Weather Stations






























Interactive Weather Map
Tropical Storm Tracking
New forecast layout! Learn more

10-Day Weather Forecast

Advertisements
Track Severe Weather on mobile